createdAt,value
2023-03-01T00:01:28.652Z,103304.13
2023-03-01T00:03:57.060Z,103300.38
2023-03-01T00:06:25.697Z,103301.03
2023-03-01T00:08:53.435Z,103303.47
2023-03-01T00:11:23.728Z,103305.03
2023-03-01T00:13:53.728Z,103308.41
2023-03-01T00:16:27.403Z,103302.16
2023-03-01T00:18:56.326Z,103298.53
2023-03-01T00:21:24.793Z,103288.97
2023-03-01T00:23:52.284Z,103292.31
2023-03-01T00:26:21.004Z,103292.06
2023-03-01T00:28:48.661Z,103299.72
2023-03-01T00:31:18.880Z,103293.63
2023-03-01T00:33:46.621Z,103294.25
2023-03-01T00:36:15.741Z,103294.00
2023-03-01T00:38:45.416Z,103295.66
2023-03-01T00:41:16.311Z,103292.69
2023-03-01T00:43:44.214Z,103294.38
2023-03-01T00:46:17.033Z,103297.59
2023-03-01T00:48:45.389Z,103295.66
2023-03-01T00:51:22.192Z,103301.59
2023-03-01T00:53:52.927Z,103300.56
2023-03-01T00:56:20.224Z,103297.81
2023-03-01T00:58:47.620Z,103292.41
2023-03-01T01:01:20.917Z,103288.78
2023-03-01T01:03:57.529Z,103286.78
2023-03-01T01:06:28.657Z,103283.31
2023-03-01T01:08:57.160Z,103290.94
2023-03-01T01:11:26.855Z,103290.81
2023-03-01T01:13:55.631Z,103288.88
2023-03-01T01:16:25.065Z,103281.75
2023-03-01T01:18:52.936Z,103287.81
2023-03-01T01:21:23.824Z,103266.06
2023-03-01T01:23:52.652Z,103261.53
2023-03-01T01:26:23.957Z,103260.47
2023-03-01T01:28:52.357Z,103260.34
2023-03-01T01:31:20.072Z,103254.13
2023-03-01T01:33:47.676Z,103259.19
2023-03-01T01:36:14.957Z,103263.31
2023-03-01T01:38:43.478Z,103253.72
2023-03-01T01:41:15.085Z,103257.72
2023-03-01T01:44:07.279Z,103251.34
2023-03-01T01:46:45.594Z,103249.69
2023-03-01T01:49:33.431Z,103249.56
2023-03-01T01:52:26.428Z,103235.56
2023-03-01T01:55:10.283Z,103238.91
2023-03-01T01:57:46.171Z,103238.69
2023-03-01T02:00:20.431Z,103232.56
2023-03-01T02:02:52.984Z,103240.19
2023-03-01T02:05:20.364Z,103234.13
2023-03-01T02:07:49.552Z,103231.38
2023-03-01T02:10:22.333Z,103226.09
2023-03-01T02:12:49.815Z,103222.59
2023-03-01T02:15:17.156Z,103225.81
2023-03-01T02:17:44.650Z,103221.41
2023-03-01T02:20:30.297Z,103222.19
2023-03-01T02:22:59.443Z,103221.41
2023-03-01T02:26:00.935Z,103215.97
2023-03-01T02:28:32.583Z,103208.06
2023-03-01T02:31:18.867Z,103198.47
2023-03-01T02:33:46.618Z,103200.81
2023-03-01T02:36:19.639Z,103196.38
2023-03-01T02:38:49.655Z,103188.50
2023-03-01T02:41:20.214Z,103197.03
2023-03-01T02:43:47.811Z,103195.22
2023-03-01T02:46:19.200Z,103204.66
2023-03-01T02:48:58.529Z,103183.69
2023-03-01T02:51:44.675Z,103185.38
2023-03-01T02:54:24.347Z,103177.34
2023-03-01T02:56:52.748Z,103173.09
2023-03-01T02:59:25.849Z,103179.00
2023-03-01T03:01:53.152Z,103174.34
2023-03-01T03:04:22.207Z,103168.78
2023-03-01T03:06:52.470Z,103173.81
2023-03-01T03:09:20.076Z,103173.81
2023-03-01T03:11:47.865Z,103176.41
2023-03-01T03:14:17.560Z,103169.25
2023-03-01T03:16:50.541Z,103177.00
2023-03-01T03:19:20.687Z,103175.22
2023-03-01T03:21:48.068Z,103182.19
2023-03-01T03:24:15.335Z,103179.50
2023-03-01T03:26:42.558Z,103173.13
2023-03-01T03:29:09.995Z,103186.81
2023-03-01T03:31:37.399Z,103198.22
2023-03-01T03:34:04.917Z,103199.91
2023-03-01T03:36:32.260Z,103196.28
2023-03-01T03:39:00.296Z,103188.50
2023-03-01T03:41:27.639Z,103183.34
2023-03-01T03:43:54.898Z,103181.41
2023-03-01T03:46:22.136Z,103171.94
2023-03-01T03:48:50.892Z,103175.03
2023-03-01T03:51:19.542Z,103177.47
2023-03-01T03:53:46.875Z,103178.09
2023-03-01T03:56:14.865Z,103183.00
2023-03-01T03:58:42.281Z,103178.59
2023-03-01T04:01:09.725Z,103177.56
2023-03-01T04:03:37.274Z,103178.06
2023-03-01T04:06:05.509Z,103182.34
2023-03-01T04:08:32.949Z,103184.78
2023-03-01T04:11:23.297Z,103188.13
2023-03-01T04:13:53.368Z,103194.06
2023-03-01T04:16:21.428Z,103190.28
2023-03-01T04:18:48.884Z,103186.81
2023-03-01T04:21:16.823Z,103183.44
2023-03-01T04:23:44.226Z,103191.34
2023-03-01T04:26:11.577Z,103183.44
2023-03-01T04:28:41.610Z,103171.31
2023-03-01T04:31:15.001Z,103172.84
2023-03-01T04:34:02.453Z,103170.13
2023-03-01T04:36:31.187Z,103169.06
2023-03-01T04:38:58.843Z,103175.88
2023-03-01T04:41:26.556Z,103172.56
2023-03-01T04:43:53.864Z,103158.59
2023-03-01T04:46:22.339Z,103168.94
2023-03-01T04:48:51.086Z,103162.72
2023-03-01T04:51:19.611Z,103162.28
2023-03-01T04:53:47.130Z,103146.78
2023-03-01T04:56:15.307Z,103158.03
2023-03-01T04:58:43.368Z,103157.91
2023-03-01T05:01:16.312Z,103150.75
2023-03-01T05:03:49.483Z,103152.94
2023-03-01T05:06:20.691Z,103142.31
2023-03-01T05:08:48.064Z,103135.06
2023-03-01T05:11:15.298Z,103139.47
2023-03-01T05:13:42.754Z,103135.84
2023-03-01T05:16:13.945Z,103131.28
2023-03-01T05:18:41.849Z,103120.94
2023-03-01T05:21:12.786Z,103125.22
2023-03-01T05:23:40.143Z,103129.47
2023-03-01T05:26:16.028Z,103113.97
2023-03-01T05:28:43.765Z,103113.19
2023-03-01T05:31:11.521Z,103120.94
2023-03-01T05:33:40.514Z,103114.13
2023-03-01T05:36:10.685Z,103106.97
2023-03-01T05:38:37.978Z,103105.03
2023-03-01T05:41:05.931Z,103110.69
2023-03-01T05:43:34.998Z,103107.19
2023-03-01T05:46:02.521Z,103095.81
2023-03-01T05:48:30.159Z,103095.06
2023-03-01T05:51:01.151Z,103102.81
2023-03-01T05:53:28.648Z,103101.75
2023-03-01T05:55:55.995Z,103103.44
2023-03-01T05:58:23.680Z,103106.03
2023-03-01T06:00:52.463Z,103099.69
2023-03-01T06:03:20.730Z,103097.69
2023-03-01T06:05:48.090Z,103090.44
2023-03-01T06:08:15.391Z,103098.97
2023-03-01T06:10:42.806Z,103097.16
2023-03-01T06:13:10.284Z,103097.16
2023-03-01T06:15:37.868Z,103111.59
2023-03-01T06:18:06.625Z,103107.34
2023-03-01T06:20:33.868Z,103112.50
2023-03-01T06:23:01.266Z,103121.94
2023-03-01T06:25:29.886Z,103116.63
2023-03-01T06:27:57.526Z,103130.44
2023-03-01T06:30:26.969Z,103121.94
2023-03-01T06:33:01.687Z,103130.72
2023-03-01T06:35:32.690Z,103129.97
2023-03-01T06:38:01.662Z,103129.03
2023-03-01T06:40:29.699Z,103136.78
2023-03-01T06:42:56.916Z,103143.16
2023-03-01T06:45:24.627Z,103145.88
2023-03-01T06:47:52.012Z,103144.34
2023-03-01T06:50:20.088Z,103142.06
2023-03-01T06:55:14.298Z,103139.13
2023-03-01T06:57:41.976Z,103133.31
2023-03-01T07:00:10.108Z,103138.00
2023-03-01T07:02:37.946Z,103136.59
2023-03-01T07:05:05.763Z,103142.19
2023-03-01T07:07:33.348Z,103145.03
2023-03-01T07:10:00.718Z,103142.25
2023-03-01T07:12:28.248Z,103141.38
2023-03-01T07:14:55.430Z,103132.38
2023-03-01T07:17:22.853Z,103134.59
2023-03-01T07:19:53.030Z,103133.47
2023-03-01T07:22:20.647Z,103133.88
2023-03-01T07:24:48.148Z,103133.53
2023-03-01T07:27:15.501Z,103127.97
2023-03-01T07:29:42.789Z,103123.34
2023-03-01T07:32:11.126Z,103133.47
2023-03-01T07:34:38.668Z,103132.31
2023-03-01T07:37:06.011Z,103134.81
2023-03-01T07:39:33.425Z,103134.44
2023-03-01T07:42:00.716Z,103133.41
2023-03-01T07:44:29.242Z,103132.41
2023-03-01T07:46:57.472Z,103135.66
2023-03-01T07:49:24.938Z,103122.56
2023-03-01T07:51:52.150Z,103131.13
2023-03-01T07:54:19.739Z,103130.22
2023-03-01T07:56:47.154Z,103128.41
2023-03-01T07:59:14.692Z,103130.09
2023-03-01T08:01:42.027Z,103131.66
2023-03-01T08:04:09.723Z,103129.97
2023-03-01T08:06:38.391Z,103134.22
2023-03-01T08:09:05.903Z,103132.78
2023-03-01T08:11:34.045Z,103123.41
2023-03-01T08:14:01.763Z,103128.91
2023-03-01T08:16:29.647Z,103117.31
2023-03-01T08:19:00.526Z,103114.50
2023-03-01T08:21:27.789Z,103114.41
2023-03-01T08:23:54.925Z,103123.22
2023-03-01T08:26:22.632Z,103115.31
2023-03-01T08:28:51.853Z,103116.66
2023-03-01T08:31:20.810Z,103111.22
2023-03-01T08:33:51.771Z,103111.84
2023-03-01T08:36:19.655Z,103116.53
2023-03-01T08:38:46.915Z,103105.25
2023-03-01T08:41:14.334Z,103106.63
2023-03-01T08:43:41.991Z,103095.69
2023-03-01T08:46:09.545Z,103104.31
2023-03-01T08:48:36.871Z,103105.66
2023-03-01T08:51:13.960Z,103106.38
2023-03-01T08:53:41.927Z,103100.69
2023-03-01T08:56:10.207Z,103103.44
2023-03-01T08:58:38.522Z,103100.84
2023-03-01T09:01:10.360Z,103097.06
2023-03-01T09:03:37.964Z,103096.63
2023-03-01T09:06:08.467Z,103090.22
2023-03-01T09:08:37.763Z,103080.13
2023-03-01T09:11:07.360Z,103084.91
2023-03-01T09:13:35.206Z,103075.41
2023-03-01T09:16:04.833Z,103076.59
2023-03-01T09:18:33.030Z,103076.72
2023-03-01T09:21:08.056Z,103078.59
2023-03-01T09:23:37.523Z,103084.66
2023-03-01T09:26:04.942Z,103080.47
2023-03-01T09:28:32.602Z,103083.09
2023-03-01T09:31:01.249Z,103080.22
2023-03-01T09:33:30.621Z,103085.09
2023-03-01T09:36:00.046Z,103092.41
2023-03-01T09:38:27.941Z,103088.88
2023-03-01T09:40:55.471Z,103088.03
2023-03-01T09:43:59.100Z,103095.31
2023-03-01T09:46:27.836Z,103088.84
2023-03-01T09:49:05.588Z,103099.72
2023-03-01T09:51:36.387Z,103098.47
2023-03-01T09:54:05.755Z,103104.41
2023-03-01T09:56:40.476Z,103100.78
2023-03-01T09:59:20.850Z,103094.31
2023-03-01T10:02:11.899Z,103094.72
2023-03-01T10:05:01.121Z,103094.25
2023-03-01T10:07:31.165Z,103099.28
2023-03-01T10:09:59.160Z,103093.84
2023-03-01T10:12:36.265Z,103101.31
2023-03-01T10:15:17.918Z,103097.81
2023-03-01T10:17:54.622Z,103098.59
2023-03-01T10:20:28.051Z,103098.69
2023-03-01T10:22:56.455Z,103101.41
2023-03-01T10:25:42.426Z,103093.94
2023-03-01T10:28:38.980Z,103088.94
2023-03-01T10:31:12.402Z,103095.94
2023-03-01T10:33:41.899Z,103096.97
2023-03-01T10:36:09.849Z,103088.94
2023-03-01T10:38:55.460Z,103078.47
2023-03-01T10:41:24.600Z,103076.06
2023-03-01T10:44:01.356Z,103079.25
2023-03-01T10:46:34.406Z,103072.16
2023-03-01T10:49:20.499Z,103074.75
2023-03-01T10:51:51.464Z,103068.22
2023-03-01T10:54:30.184Z,103064.97
2023-03-01T10:57:00.251Z,103065.09
2023-03-01T10:59:36.319Z,103062.00
2023-03-01T11:02:29.238Z,103060.88
2023-03-01T11:05:00.701Z,103060.94
2023-03-01T11:07:29.535Z,103060.25
2023-03-01T11:09:57.477Z,103064.03
2023-03-01T11:12:25.531Z,103066.41
2023-03-01T11:14:56.231Z,103062.97
2023-03-01T11:17:34.647Z,103067.19
2023-03-01T11:20:29.908Z,103067.94
2023-03-01T11:23:07.575Z,103061.16
2023-03-01T11:25:38.815Z,103056.59
2023-03-01T11:28:09.059Z,103052.25
2023-03-01T11:31:08.955Z,103050.81
2023-03-01T11:33:54.973Z,103048.38
2023-03-01T11:36:56.562Z,103046.94
2023-03-01T11:39:42.785Z,103046.50
2023-03-01T11:42:30.704Z,103049.25
2023-03-01T11:45:03.077Z,103052.88
2023-03-01T11:47:57.784Z,103055.56
2023-03-01T11:50:36.698Z,103048.91
2023-03-01T11:53:27.494Z,103052.84
2023-03-01T11:56:10.103Z,103045.31
2023-03-01T11:58:45.854Z,103048.69
2023-03-01T12:01:16.239Z,103044.28
2023-03-01T12:04:22.749Z,103041.78
2023-03-01T12:07:05.179Z,103032.38
2023-03-01T12:09:59.886Z,103027.53
2023-03-01T12:12:41.028Z,103025.81
2023-03-01T12:16:06.169Z,103020.47
2023-03-01T12:19:03.868Z,103011.81
2023-03-01T12:21:39.979Z,103011.25
2023-03-01T12:24:29.476Z,103016.56
2023-03-01T12:27:05.040Z,103005.38
2023-03-01T12:29:49.871Z,103003.66
2023-03-01T12:32:43.644Z,102988.94
2023-03-01T12:35:42.243Z,102992.84
2023-03-01T12:38:29.947Z,102988.88
2023-03-01T12:41:16.244Z,102987.34
2023-03-01T12:43:52.831Z,102986.69
2023-03-01T12:46:30.972Z,102985.88
2023-03-01T12:49:16.621Z,102979.00
2023-03-01T12:52:00.019Z,102974.09
2023-03-01T12:54:31.505Z,102972.69
2023-03-01T12:57:08.278Z,102968.34
2023-03-01T12:59:38.550Z,102975.97
2023-03-01T13:02:05.890Z,102965.47
2023-03-01T13:04:34.427Z,102949.84
2023-03-01T13:07:39.715Z,102954.03
2023-03-01T13:10:25.815Z,102947.06
2023-03-01T13:13:03.644Z,102935.53
2023-03-01T13:15:32.199Z,102946.81
2023-03-01T13:18:00.840Z,102945.28
2023-03-01T13:20:58.957Z,102932.19
2023-03-01T13:23:30.605Z,102934.03
2023-03-01T13:26:17.511Z,102934.78
2023-03-01T13:28:49.493Z,102932.50
2023-03-01T13:31:16.824Z,102937.91
2023-03-01T13:33:52.593Z,102928.56
2023-03-01T13:36:28.934Z,102930.19
2023-03-01T13:38:56.590Z,102930.94
2023-03-01T13:41:42.274Z,102914.00
2023-03-01T13:44:28.275Z,102909.41
2023-03-01T13:47:04.883Z,102915.31
2023-03-01T13:49:59.362Z,102911.88
2023-03-01T13:52:40.212Z,102902.28
2023-03-01T13:55:19.661Z,102899.59
2023-03-01T13:57:54.503Z,102907.44
2023-03-01T14:00:41.602Z,102914.41
2023-03-01T14:03:09.066Z,102908.28
2023-03-01T14:05:37.168Z,102911.78
2023-03-01T14:08:06.159Z,102905.66
2023-03-01T14:11:09.319Z,102905.72
2023-03-01T14:13:42.876Z,102906.78
2023-03-01T14:16:30.409Z,102899.09
2023-03-01T14:19:16.015Z,102895.72
2023-03-01T14:21:46.029Z,102893.06
2023-03-01T14:24:23.691Z,102893.94
2023-03-01T14:26:51.526Z,102887.66
2023-03-01T14:29:35.496Z,102883.31
2023-03-01T14:32:24.753Z,102885.13
2023-03-01T14:34:52.472Z,102874.63
2023-03-01T14:37:27.561Z,102872.09
2023-03-01T14:39:55.980Z,102864.16
2023-03-01T14:42:26.189Z,102871.09
2023-03-01T14:44:56.225Z,102872.09
2023-03-01T14:47:29.815Z,102868.41
2023-03-01T14:50:02.388Z,102861.19
2023-03-01T14:52:37.602Z,102859.31
2023-03-01T14:55:08.375Z,102853.91
2023-03-01T14:57:35.525Z,102845.91
2023-03-01T15:00:07.867Z,102844.94
2023-03-01T15:02:36.604Z,102833.50
2023-03-01T15:05:08.437Z,102830.88
2023-03-01T15:07:40.936Z,102822.94
2023-03-01T15:10:18.520Z,102820.22
2023-03-01T15:12:46.081Z,102827.28
2023-03-01T15:15:35.036Z,102818.50
2023-03-01T15:18:15.464Z,102820.22
2023-03-01T15:20:43.346Z,102824.50
2023-03-01T15:23:26.323Z,102820.22
2023-03-01T15:25:58.593Z,102817.63
2023-03-01T15:28:31.412Z,102811.47
2023-03-01T15:31:04.623Z,102812.38
2023-03-01T15:33:37.897Z,102802.78
2023-03-01T15:36:33.242Z,102798.53
2023-03-01T15:39:01.614Z,102793.28
2023-03-01T15:41:34.810Z,102789.88
2023-03-01T15:44:19.490Z,102784.81
2023-03-01T15:46:49.608Z,102782.09
2023-03-01T15:49:54.287Z,102783.75
2023-03-01T15:52:40.684Z,102783.66
2023-03-01T15:55:22.685Z,102784.47
2023-03-01T15:57:59.883Z,102775.53
2023-03-01T16:00:27.504Z,102774.56
2023-03-01T16:02:54.786Z,102770.09
2023-03-01T16:05:29.479Z,102781.31
2023-03-01T16:07:57.103Z,102777.63
2023-03-01T16:10:25.211Z,102768.72
2023-03-01T16:12:53.612Z,102775.41
2023-03-01T16:15:33.264Z,102775.25
2023-03-01T16:18:00.709Z,102788.09
2023-03-01T16:20:32.129Z,102783.50
2023-03-01T16:23:06.962Z,102787.66
2023-03-01T16:25:36.237Z,102797.94
2023-03-01T16:28:09.639Z,102794.28
2023-03-01T16:30:38.885Z,102794.94
2023-03-01T16:33:24.210Z,102792.06
2023-03-01T16:35:54.463Z,102793.44
2023-03-01T16:38:21.981Z,102798.44
2023-03-01T16:40:52.168Z,102796.06
2023-03-01T16:43:19.499Z,102811.25
2023-03-01T16:45:47.767Z,102795.13
2023-03-01T16:48:15.547Z,102802.59
2023-03-01T16:50:44.785Z,102793.53
2023-03-01T16:53:12.151Z,102801.09
2023-03-01T16:55:46.369Z,102797.25
2023-03-01T16:58:13.780Z,102798.59
2023-03-01T17:00:41.135Z,102799.78
2023-03-01T17:03:08.412Z,102797.63
2023-03-01T17:05:36.481Z,102797.28
2023-03-01T17:08:03.978Z,102798.56
2023-03-01T17:10:31.436Z,102793.69
2023-03-01T17:12:59.179Z,102798.56
2023-03-01T17:15:26.465Z,102796.31
2023-03-01T17:17:53.745Z,102799.44
2023-03-01T17:20:21.250Z,102814.75
2023-03-01T17:22:48.536Z,102808.19
2023-03-01T17:25:16.043Z,102814.63
2023-03-01T17:27:43.394Z,102814.16
2023-03-01T17:30:12.815Z,102818.22
2023-03-01T17:32:40.538Z,102820.44
2023-03-01T17:35:09.051Z,102818.97
2023-03-01T17:37:38.257Z,102818.59
2023-03-01T17:40:07.009Z,102825.94
2023-03-01T17:42:34.482Z,102829.78
2023-03-01T17:45:01.715Z,102831.09
2023-03-01T17:47:29.011Z,102832.31
2023-03-01T17:49:56.270Z,102840.16
2023-03-01T17:52:23.935Z,102843.69
2023-03-01T17:54:51.528Z,102841.69
2023-03-01T17:57:18.849Z,102853.09
2023-03-01T17:59:46.055Z,102858.69
2023-03-01T18:02:14.004Z,102856.69
2023-03-01T18:04:41.366Z,102850.28
2023-03-01T18:07:08.621Z,102870.00
2023-03-01T18:09:35.891Z,102854.97
2023-03-01T18:12:03.240Z,102859.28
2023-03-01T18:14:33.881Z,102874.19
2023-03-01T18:17:06.734Z,102884.50
2023-03-01T18:19:35.338Z,102868.78
2023-03-01T18:22:02.587Z,102881.00
2023-03-01T18:24:30.261Z,102867.88
2023-03-01T18:26:57.561Z,102872.19
2023-03-01T18:29:24.753Z,102865.38
2023-03-01T18:31:52.487Z,102861.06
2023-03-01T18:34:19.896Z,102867.16
2023-03-01T18:37:00.555Z,102866.38
2023-03-01T18:39:34.444Z,102855.97
2023-03-01T18:42:02.254Z,102854.25
2023-03-01T18:44:29.799Z,102859.47
2023-03-01T18:46:58.378Z,102871.59
2023-03-01T18:49:29.016Z,102863.78
2023-03-01T18:51:56.774Z,102855.84
2023-03-01T18:54:24.543Z,102850.75
2023-03-01T18:56:51.837Z,102852.53
2023-03-01T18:59:19.206Z,102852.47
2023-03-01T19:01:46.640Z,102853.38
2023-03-01T19:04:14.038Z,102859.47
2023-03-01T19:06:41.962Z,102851.53
2023-03-01T19:09:09.760Z,102853.97
2023-03-01T19:11:38.655Z,102862.38
2023-03-01T19:14:06.064Z,102883.88
2023-03-01T19:16:35.829Z,102872.47
2023-03-01T19:19:08.493Z,102867.34
2023-03-01T19:21:36.461Z,102865.75
2023-03-01T19:24:04.545Z,102869.25
2023-03-01T19:26:32.796Z,102874.34
2023-03-01T19:29:03.569Z,102873.56
2023-03-01T19:31:31.238Z,102871.75
2023-03-01T19:34:10.572Z,102876.78
2023-03-01T19:36:43.219Z,102868.97
2023-03-01T19:39:13.583Z,102877.66
2023-03-01T19:41:42.393Z,102874.28
2023-03-01T19:44:10.126Z,102888.19
2023-03-01T19:46:37.550Z,102878.47
2023-03-01T19:49:04.993Z,102878.38
2023-03-01T19:51:35.646Z,102877.56
2023-03-01T19:54:03.347Z,102877.78
2023-03-01T19:56:31.750Z,102863.03
2023-03-01T19:59:00.766Z,102871.75
2023-03-01T20:01:29.932Z,102867.13
2023-03-01T20:03:57.467Z,102873.16
2023-03-01T20:06:25.967Z,102874.06
2023-03-01T20:08:53.372Z,102885.34
2023-03-01T20:11:21.292Z,102878.38
2023-03-01T20:13:48.639Z,102879.03
2023-03-01T20:16:18.868Z,102877.97
2023-03-01T20:18:46.543Z,102876.13
2023-03-01T20:21:23.527Z,102882.94
2023-03-01T20:23:52.193Z,102883.84
2023-03-01T20:26:20.587Z,102872.31
2023-03-01T20:28:50.703Z,102887.03
2023-03-01T20:31:20.563Z,102886.13
2023-03-01T20:33:48.042Z,102878.22
2023-03-01T20:36:16.133Z,102886.81
2023-03-01T20:38:43.511Z,102881.59
2023-03-01T20:41:12.830Z,102881.59
2023-03-01T20:43:42.225Z,102887.41
2023-03-01T20:46:12.374Z,102888.09
2023-03-01T20:48:43.202Z,102889.69
2023-03-01T20:51:13.012Z,102894.91
2023-03-01T20:53:51.053Z,102899.09
2023-03-01T20:56:20.763Z,102907.91
2023-03-01T20:59:12.501Z,102887.75
2023-03-01T21:01:43.830Z,102891.84
2023-03-01T21:04:14.235Z,102895.38
2023-03-01T21:06:42.913Z,102897.16
2023-03-01T21:09:10.730Z,102894.56
2023-03-01T21:11:40.626Z,102897.28
2023-03-01T21:14:09.389Z,102895.50
2023-03-01T21:16:37.120Z,102897.28
2023-03-01T21:19:04.647Z,102902.72
2023-03-01T21:21:31.923Z,102897.63
2023-03-01T21:23:59.253Z,102887.09
2023-03-01T21:26:29.778Z,102891.38
2023-03-01T21:29:00.309Z,102887.09
2023-03-01T21:31:32.125Z,102886.88
2023-03-01T21:34:01.270Z,102896.38
2023-03-01T21:36:30.286Z,102887.69
2023-03-01T21:39:03.673Z,102885.09
2023-03-01T21:41:36.942Z,102882.47
2023-03-01T21:44:06.769Z,102883.38
2023-03-01T21:46:37.176Z,102880.78
2023-03-01T21:49:05.782Z,102882.56
2023-03-01T21:51:33.720Z,102867.66
2023-03-01T21:54:03.984Z,102872.06
2023-03-01T21:56:34.486Z,102869.13
2023-03-01T21:59:01.881Z,102872.44
2023-03-01T22:01:29.520Z,102876.63
2023-03-01T22:03:59.162Z,102865.22
2023-03-01T22:06:41.164Z,102865.91
2023-03-01T22:09:15.352Z,102865.00
2023-03-01T22:11:45.899Z,102869.97
2023-03-01T22:14:14.106Z,102873.38
2023-03-01T22:16:43.378Z,102867.97
2023-03-01T22:19:11.968Z,102861.88
2023-03-01T22:21:40.919Z,102874.97
2023-03-01T22:24:09.404Z,102867.97
2023-03-01T22:26:40.250Z,102875.66
2023-03-01T22:29:11.620Z,102871.03
2023-03-01T22:31:39.975Z,102880.53
2023-03-01T22:34:08.264Z,102878.84
2023-03-01T22:36:35.549Z,102885.63
2023-03-01T22:39:04.400Z,102888.13
2023-03-01T22:41:43.334Z,102886.09
2023-03-01T22:44:12.793Z,102884.31
2023-03-01T22:46:40.537Z,102885.88
2023-03-01T22:49:08.177Z,102891.88
2023-03-01T22:51:38.051Z,102881.06
2023-03-01T22:54:06.313Z,102876.31
2023-03-01T22:56:36.726Z,102879.59
2023-03-01T22:59:08.759Z,102887.31
2023-03-01T23:01:37.477Z,102884.78
2023-03-01T23:04:05.004Z,102881.28
2023-03-01T23:06:34.098Z,102887.19
2023-03-01T23:09:04.365Z,102878.16
2023-03-01T23:11:32.856Z,102877.91
2023-03-01T23:14:00.571Z,102876.91
2023-03-01T23:16:27.898Z,102877.59
2023-03-01T23:18:58.300Z,102875.78
2023-03-01T23:21:25.625Z,102891.38
2023-03-01T23:23:56.062Z,102886.41
2023-03-01T23:26:28.792Z,102880.50
2023-03-01T23:28:57.545Z,102877.13
2023-03-01T23:31:29.969Z,102874.53
2023-03-01T23:33:57.737Z,102876.25
2023-03-01T23:36:32.182Z,102877.13
2023-03-01T23:39:04.146Z,102877.13
2023-03-01T23:41:33.812Z,102876.25
2023-03-01T23:44:04.972Z,102871.72
2023-03-01T23:46:35.708Z,102865.72
2023-03-01T23:49:04.700Z,102871.81
2023-03-01T23:51:31.965Z,102868.34
2023-03-01T23:54:05.402Z,102866.50
2023-03-01T23:56:35.947Z,102870.59
2023-03-01T23:59:12.212Z,102875.56
